Gum Springs Road, Louisiana
Current Conditions -  °F | °C
As of 11:55 AM on Tuesday 21 Oct 2014 (Local Time) from KIER Reporting Station
Clear Clear  
Wind Chill: 75°   Ceiling: Unl
Heat Index: 75°   Visibility: 10mi
Dew Point: 60°   Wind: 6mph
Humidity: 58%   Direction: 90°E
Pressure: 30.11"   Gusts: NA
Location:  31.8476°N, 92.7651°W
Report Text: KIER 211655Z AUTO 09005KT 10SM CLR 24/15 A3011 RMK AO2 T02410154
Loading
Personal Weather Stations






























Interactive Weather Map
Tropical Storm Tracking
New forecast layout! Learn more

10-Day Weather Forecast

Advertisements
Track Severe Weather on mobile